createdAt,value
2018-05-11T13:44:41.706Z,99.90
2018-05-11T13:47:07.997Z,96.20
2018-05-11T13:49:34.304Z,93.60
2018-05-11T13:55:19.931Z,87.50
2018-05-11T13:57:46.187Z,84.00
2018-05-11T14:00:12.430Z,81.70
2018-05-11T14:02:38.717Z,78.60
2018-05-11T14:05:05.031Z,75.40
2018-05-11T14:07:31.289Z,71.90
2018-05-11T14:09:57.534Z,71.00
2018-05-11T14:12:24.023Z,69.70
2018-05-11T14:14:50.370Z,67.70
2018-05-11T14:17:17.055Z,65.30
2018-05-11T14:19:44.235Z,61.60
2018-05-11T14:22:11.106Z,61.50
2018-05-11T14:24:37.770Z,58.40
2018-05-11T14:27:04.387Z,56.80
2018-05-11T14:29:31.601Z,53.40
2018-05-11T14:31:57.949Z,53.30
2018-05-11T14:34:24.290Z,53.20
2018-05-11T14:36:50.738Z,49.00
2018-05-11T14:39:17.144Z,48.40
2018-05-11T14:41:44.218Z,48.80
2018-05-11T14:44:10.902Z,47.80
2018-05-11T14:46:37.274Z,46.30
2018-05-11T14:49:03.769Z,45.30
2018-05-11T14:51:30.243Z,45.90
2018-05-11T14:53:56.636Z,46.00
2018-05-11T14:56:23.163Z,45.50
2018-05-11T14:58:49.576Z,45.80
2018-05-11T15:01:16.209Z,46.30
2018-05-11T15:03:42.429Z,45.80
2018-05-11T15:06:09.391Z,45.30
2018-05-11T15:08:35.727Z,45.30
2018-05-11T15:11:02.474Z,45.90
2018-05-11T15:13:29.123Z,46.60
2018-05-11T15:15:55.840Z,47.10
2018-05-11T15:18:23.291Z,48.70
2018-05-11T15:20:49.881Z,48.70
2018-05-11T15:23:16.403Z,48.30
2018-05-11T15:25:43.507Z,47.40
2018-05-11T15:28:10.157Z,46.70
2018-05-11T15:30:36.382Z,47.70
2018-05-11T15:33:02.710Z,48.00
2018-05-11T15:35:29.392Z,49.00
2018-05-11T15:37:55.882Z,49.00
2018-05-11T15:40:23.242Z,48.00
2018-05-11T15:42:49.458Z,48.00
2018-05-11T15:45:15.985Z,48.40
2018-05-11T15:47:42.695Z,48.10
2018-05-11T15:50:09.240Z,47.10
2018-05-11T15:52:35.842Z,46.70
2018-05-11T15:55:02.345Z,46.80
2018-05-11T15:57:29.310Z,47.40
2018-05-11T15:59:55.608Z,48.10
2018-05-11T16:02:22.878Z,49.40
2018-05-11T16:04:50.492Z,49.50
2018-05-11T16:07:17.220Z,49.30
2018-05-11T16:09:44.061Z,48.90
2018-05-11T16:12:10.847Z,49.00
2018-05-11T16:14:37.598Z,49.40
2018-05-11T16:17:04.143Z,49.40
2018-05-11T16:19:30.600Z,49.90
2018-05-11T16:21:57.632Z,50.10
2018-05-11T16:24:23.851Z,50.10
2018-05-11T16:26:50.531Z,49.50
2018-05-11T16:29:17.953Z,48.50
2018-05-11T16:31:44.546Z,48.50
2018-05-11T16:34:11.376Z,48.50
2018-05-11T16:36:37.743Z,49.10
2018-05-11T16:39:05.296Z,49.50
2018-05-11T16:41:31.559Z,49.50
2018-05-11T16:43:58.235Z,50.00
2018-05-11T16:46:24.806Z,50.30
2018-05-11T16:48:51.381Z,50.20
2018-05-11T16:51:17.846Z,49.80
2018-05-11T16:53:46.831Z,50.40
2018-05-11T16:56:13.184Z,50.60
2018-05-11T16:58:39.482Z,50.70
2018-05-11T17:01:06.099Z,50.70
2018-05-11T17:03:33.017Z,50.70
2018-05-11T17:05:59.539Z,50.80
2018-05-11T17:08:27.087Z,50.60
2018-05-11T17:10:53.809Z,50.30
2018-05-11T17:13:20.558Z,50.10
2018-05-11T17:15:49.208Z,50.20
2018-05-11T17:18:15.702Z,50.50
2018-05-11T17:20:42.758Z,49.90
2018-05-11T17:23:09.058Z,50.00
2018-05-11T17:25:36.239Z,51.10
2018-05-11T17:28:03.800Z,51.60
2018-05-11T17:30:31.222Z,52.60
2018-05-11T17:32:57.785Z,52.50
2018-05-11T17:35:24.449Z,53.40
2018-05-11T17:37:50.823Z,54.00
2018-05-11T17:40:17.350Z,53.40
2018-05-11T17:42:43.579Z,53.20
2018-05-11T17:45:10.726Z,53.70
2018-05-11T17:47:37.098Z,53.70
2018-05-11T17:50:03.747Z,53.50
2018-05-11T17:52:30.070Z,53.90
2018-05-11T17:54:56.579Z,54.20
2018-05-11T17:57:22.995Z,54.20
2018-05-11T17:59:49.515Z,54.60
2018-05-11T18:02:15.965Z,55.10
2018-05-11T18:04:42.298Z,55.90
2018-05-11T18:07:09.303Z,56.00
2018-05-11T18:09:35.832Z,56.00
2018-05-11T18:12:02.478Z,56.60
2018-05-11T18:14:29.374Z,57.70
2018-05-11T18:16:55.607Z,58.40
2018-05-11T18:19:21.898Z,59.60
2018-05-11T18:21:48.766Z,60.80
2018-05-11T18:24:15.602Z,61.20
2018-05-11T18:26:41.848Z,61.70
2018-05-11T18:29:09.094Z,62.10
2018-05-11T18:31:35.508Z,62.10
2018-05-11T18:34:02.197Z,62.60
2018-05-11T18:36:28.889Z,63.20
2018-05-11T18:38:55.614Z,63.60
2018-05-11T18:41:22.017Z,63.30
2018-05-11T18:43:48.306Z,63.90
2018-05-11T18:46:15.072Z,65.10
2018-05-11T18:48:41.573Z,64.80
2018-05-11T18:51:08.642Z,65.70
2018-05-11T18:53:35.273Z,65.80
2018-05-11T18:56:01.538Z,65.80
2018-05-11T18:58:27.821Z,66.50
2018-05-11T19:00:54.189Z,66.50
2018-05-11T19:03:21.524Z,66.60
2018-05-11T19:05:47.929Z,67.30
2018-05-11T19:08:14.329Z,68.10
2018-05-11T19:10:41.865Z,68.70
2018-05-11T19:13:08.405Z,68.70
2018-05-11T19:15:35.741Z,68.80
2018-05-11T19:18:02.880Z,68.80
2018-05-11T19:20:29.533Z,68.80
2018-05-11T19:22:56.394Z,69.10
2018-05-11T19:25:23.775Z,69.80
2018-05-11T19:27:51.138Z,70.70
2018-05-11T19:30:17.906Z,70.70
2018-05-11T19:32:44.638Z,71.60
2018-05-11T19:35:11.144Z,72.60
2018-05-11T19:37:37.743Z,72.40
2018-05-11T19:40:05.240Z,73.20
2018-05-11T19:42:32.260Z,73.10
2018-05-11T19:44:59.130Z,73.40
2018-05-11T19:47:25.924Z,74.00
2018-05-11T19:49:52.699Z,74.40
2018-05-11T19:52:19.065Z,75.10
2018-05-11T19:54:45.473Z,75.10
2018-05-11T19:57:11.981Z,75.60
2018-05-11T19:59:39.513Z,77.00
2018-05-11T20:02:06.915Z,77.70
2018-05-11T20:04:34.040Z,77.90
2018-05-11T20:07:00.687Z,77.80
2018-05-11T20:09:27.182Z,78.40
2018-05-11T20:11:53.589Z,79.60
2018-05-11T20:14:19.832Z,80.50
2018-05-11T20:16:46.221Z,81.40
2018-05-11T20:19:13.199Z,83.10
2018-05-11T20:21:40.214Z,83.70
2018-05-11T20:24:06.544Z,83.60
2018-05-11T20:26:32.814Z,84.60
2018-05-11T20:28:59.668Z,85.50
2018-05-11T20:31:26.689Z,86.60
2018-05-11T20:33:53.213Z,88.10
2018-05-11T20:36:19.780Z,89.40
2018-05-11T20:38:46.035Z,90.20
2018-05-11T20:41:12.821Z,90.90
2018-05-11T20:43:39.977Z,91.70
2018-05-11T20:46:06.279Z,92.00
2018-05-11T20:48:32.570Z,92.40
2018-05-11T20:50:58.892Z,93.00
2018-05-11T20:53:25.512Z,93.50
2018-05-11T20:55:52.501Z,94.20
2018-05-11T20:58:19.075Z,94.90
2018-05-11T21:00:45.552Z,95.40
2018-05-11T21:03:12.213Z,96.10
2018-05-11T21:05:38.785Z,97.00
2018-05-11T21:08:06.074Z,98.50
2018-05-11T21:10:32.675Z,98.50
2018-05-11T21:12:59.404Z,99.10
2018-05-11T21:15:26.397Z,99.80
2018-05-11T21:17:53.009Z,99.90
2018-05-11T21:20:20.351Z,99.90
2018-05-11T21:22:46.926Z,99.90
2018-05-11T21:25:14.036Z,99.90
2018-05-11T21:27:40.318Z,99.90
2018-05-11T21:30:07.934Z,99.90
2018-05-11T21:32:34.628Z,99.90
2018-05-11T21:35:01.239Z,99.90
2018-05-11T21:37:28.672Z,99.90
2018-05-11T21:39:55.241Z,99.90
2018-05-11T21:42:21.540Z,99.90
2018-05-11T21:44:48.989Z,99.90
2018-05-11T21:47:15.414Z,99.90
2018-05-11T21:49:42.179Z,99.90
2018-05-11T21:52:08.617Z,99.90
2018-05-11T21:54:35.651Z,99.90
2018-05-11T21:57:01.905Z,99.90
2018-05-11T21:59:28.178Z,99.90
2018-05-11T22:01:54.669Z,99.90
2018-05-11T22:04:21.013Z,99.90
2018-05-11T22:06:47.287Z,99.90
2018-05-11T22:09:13.525Z,99.90
2018-05-11T22:11:39.802Z,99.90
2018-05-11T22:14:06.623Z,99.90
2018-05-11T22:16:33.383Z,99.90
2018-05-11T22:19:00.571Z,99.90
2018-05-11T22:21:27.655Z,99.90
2018-05-11T22:23:54.206Z,99.90
2018-05-11T22:26:20.919Z,99.90
2018-05-11T22:28:47.685Z,99.90
2018-05-11T22:31:14.051Z,99.90
2018-05-11T22:33:40.342Z,99.90
2018-05-11T22:36:06.680Z,99.90
2018-05-11T22:38:33.248Z,99.90
2018-05-11T22:40:59.751Z,99.90
2018-05-11T22:43:26.707Z,99.90
2018-05-11T22:45:53.186Z,99.90
2018-05-11T22:48:19.835Z,99.90
2018-05-11T22:50:46.512Z,99.90
2018-05-11T22:53:12.890Z,99.90
2018-05-11T22:55:39.142Z,99.90
2018-05-11T22:58:05.465Z,99.90
2018-05-11T23:00:32.674Z,99.90
2018-05-11T23:02:59.549Z,99.90
2018-05-11T23:05:26.247Z,99.90
2018-05-11T23:07:53.134Z,99.90
2018-05-11T23:10:20.197Z,99.90
2018-05-11T23:12:46.603Z,99.90
2018-05-11T23:15:12.835Z,99.90
2018-05-11T23:17:39.181Z,99.90
2018-05-11T23:20:05.730Z,99.90
2018-05-11T23:22:34.479Z,99.90
2018-05-11T23:25:02.309Z,99.90
2018-05-11T23:27:28.792Z,99.90
2018-05-11T23:29:55.183Z,99.90
2018-05-11T23:32:22.333Z,99.90
2018-05-11T23:34:49.037Z,99.90
2018-05-11T23:37:15.363Z,99.90
2018-05-11T23:39:42.053Z,99.90
2018-05-11T23:42:08.787Z,99.90
2018-05-11T23:44:35.945Z,99.90
2018-05-11T23:47:02.193Z,99.90
2018-05-11T23:49:28.441Z,99.90
2018-05-11T23:51:55.465Z,99.90
2018-05-11T23:54:21.764Z,99.90
2018-05-11T23:56:48.826Z,99.90
2018-05-11T23:59:21.826Z,99.90
